Sitka Rocky Gutierrez Airport
PASI : now visible

Airfield :











YOU CAN JOIN US ON...

 
LOGIN :

Register | Disclaimer

   EN    FR    IT 

 









Legend :    VFR   Marginal VFR   IFR   Intensive IFR   Very Intensive IFR
Visi :
Ceiling :
>= 8 km
>= 3000ft
5 to 8 km
1000 to 3000 ft
1500m to 5 km
500 to 1000 ft
800 to 1500m
200 to 500 ft
< 800m
< 200 ft
Symbols :   Thunderstorms  Fog  Heavy snow  Heavy precipitations  Wind > 20 kt







- Airport Elevation : 21 ft
- IATA code : SIT


PASI - Sitka Rocky Gutierrez

CURRENT METAR :
  • 211017Z 17007KT 8SM -RA SCT018 BKN031 OVC041 14/12 A2946 RMK AO2 P0001 T01390122

EXPIRED METARs :
  • 210953Z 17007KT 9SM -RA BKN019 OVC025 14/12 A2947 RMK AO2 SLP977 P0000 T01390117
  • 210926Z 17005KT 7SM -RA BKN023 BKN028 OVC035 14/12 A2946 RMK AO2 P0000 T01440117
  • 210853Z 16005KT 10SM -RA SCT044 OVC055 14/12 A2946 RMK AO2 SLP978 P0001 60002 T01440122 401670122 58001
  • 210753Z 18009KT 5SM -RA BR FEW009 BKN032 OVC040 14/13 A2947 RMK AO2 SLP978 P0001 T01440128

TAF PASI
Valid from the 21 at 06:00 until the 22 at 06:00 UTC


210533Z 2106/2206 18014G24KT 5SM -RA BR SCT008 BKN015 OVC035 WS020/19035KT
TEMPO 2106/2108 2SM -RA BR BKN008
FM210800 18011G18KT 5SM -RA SCT008 BKN015 OVC040
TEMPO 2110/2114 2SM -RA BR BKN008
FM211500 18008KT P6SM -SHRA OVC025
No reported NOTAMs for that airfield.



MET'MAP, your aeronautical weather chart ! - Copyright ORBIFLY December 2007 - Disclaimer

ORBIFLY MET'MAP TEAM :

Programming & Development : Alexandra Zaïnal
Concept & Development : Baudouin d'Aumeries
Co-Development & Prog : Marc-Olivier Méhu
Technical & hardware support : Manuel Goepfert

Contact : metmap@orbifly.com




SOURCES & CREDITS :

   NOAA       Earth
Advisory